Terminal Aerodrome Forecast
Issued by NWS

Home | Current Version | Previous Version | Text Only | Print | Product List | Glossary On
Versions: 1 2 3 4 5 6 7 8 9 10 11 12 13 14 15 16 17 18 19 20 21
000
FTUS43 KAPX 030624 AAA
TAFMBL
TAF AMD
KMBL 030624Z 0306/0406 09004KT 6SM BR VCTS SCT050CB BKN150
      TEMPO 0307/0309 3SM -TSRA BR SCT003 BKN050CB OVC120
     FM031100 VRB03KT 4SM SHRA BR BKN040 OVC120
     FM031500 16005KT P6SM VCSH BKN035 BKN120
     FM031900 28006KT P6SM BKN035
     FM040000 10002KT P6SM BKN040
      AMD LTD TO CLD VIS AND WIND=

USA.gov is the U.S. government's official web portal to all federal, state and local government web resources and services.